createdAt,value
2022-12-08T00:01:23.005Z,12.98
2022-12-08T00:03:51.513Z,13.40
2022-12-08T00:06:46.336Z,15.80
2022-12-08T00:09:23.419Z,16.90
2022-12-08T00:11:57.038Z,16.80
2022-12-08T00:14:26.705Z,14.75
2022-12-08T00:16:54.798Z,12.93
2022-12-08T00:19:23.324Z,15.52
2022-12-08T00:21:53.131Z,16.50
2022-12-08T00:24:21.586Z,14.18
2022-12-08T00:26:49.637Z,14.88
2022-12-08T00:29:17.890Z,17.35
2022-12-08T00:31:45.859Z,17.50
2022-12-08T00:34:13.864Z,16.50
2022-12-08T00:36:41.547Z,16.02
2022-12-08T00:39:10.705Z,15.82
2022-12-08T00:41:56.152Z,15.20
2022-12-08T00:44:23.941Z,16.95
2022-12-08T00:46:51.720Z,15.93
2022-12-08T00:49:19.981Z,17.60
2022-12-08T00:51:47.842Z,19.13
2022-12-08T00:54:17.397Z,16.80
2022-12-08T00:56:45.234Z,16.25
2022-12-08T00:59:13.204Z,17.85
2022-12-08T01:01:40.917Z,17.73
2022-12-08T01:04:11.018Z,16.10
2022-12-08T01:06:39.595Z,16.80
2022-12-08T01:09:08.772Z,15.95
2022-12-08T01:11:38.109Z,17.90
2022-12-08T01:14:05.800Z,16.98
2022-12-08T01:16:35.103Z,17.25
2022-12-08T01:19:03.042Z,16.90
2022-12-08T01:21:30.796Z,16.95
2022-12-08T01:24:00.596Z,18.17
2022-12-08T01:26:28.343Z,18.73
2022-12-08T01:28:57.532Z,18.83
2022-12-08T01:31:25.258Z,19.20
2022-12-08T01:33:53.376Z,18.33
2022-12-08T01:36:23.616Z,18.63
2022-12-08T01:38:52.080Z,19.63
2022-12-08T01:41:21.853Z,17.20
2022-12-08T01:44:00.390Z,17.10
2022-12-08T01:46:29.908Z,18.20
2022-12-08T01:49:03.079Z,19.45
2022-12-08T01:51:32.440Z,18.50
2022-12-08T01:54:00.184Z,17.75
2022-12-08T01:56:30.806Z,19.55
2022-12-08T01:59:00.719Z,19.55
2022-12-08T02:01:28.465Z,19.27
2022-12-08T02:04:00.351Z,20.77
2022-12-08T02:06:28.960Z,19.13
2022-12-08T02:08:57.246Z,18.77
2022-12-08T02:11:25.052Z,18.37
2022-12-08T02:13:54.185Z,18.95
2022-12-08T02:16:33.164Z,20.10
2022-12-08T02:19:33.262Z,21.13
2022-12-08T02:22:02.468Z,22.80
2022-12-08T02:24:37.512Z,22.07
2022-12-08T02:27:27.761Z,22.40
2022-12-08T02:30:18.400Z,20.90
2022-12-08T02:33:27.572Z,21.50
2022-12-08T02:35:59.647Z,21.43
2022-12-08T02:38:36.817Z,20.60
2022-12-08T02:41:10.326Z,21.67
2022-12-08T02:43:42.673Z,21.58
2022-12-08T02:46:12.903Z,21.47
2022-12-08T02:48:41.076Z,22.15
2022-12-08T02:51:10.291Z,20.70
2022-12-08T02:53:38.239Z,21.20
2022-12-08T02:56:15.988Z,22.58
2022-12-08T02:58:55.672Z,22.33
2022-12-08T03:01:43.466Z,19.70
2022-12-08T03:04:17.156Z,20.13
2022-12-08T03:06:52.478Z,20.10
2022-12-08T03:09:24.036Z,19.15
2022-12-08T03:11:54.900Z,18.97
2022-12-08T03:14:22.760Z,16.80
2022-12-08T03:16:53.152Z,18.20
2022-12-08T03:19:25.708Z,18.13
2022-12-08T03:22:00.456Z,18.60
2022-12-08T03:24:28.293Z,17.08
2022-12-08T03:26:58.889Z,16.90
2022-12-08T03:29:26.880Z,18.02
2022-12-08T03:31:57.296Z,17.30
2022-12-08T03:34:26.850Z,18.23
2022-12-08T03:36:56.103Z,16.35
2022-12-08T03:39:23.809Z,17.02
2022-12-08T03:41:51.605Z,16.55
2022-12-08T03:44:19.339Z,16.73
2022-12-08T03:46:47.069Z,17.67
2022-12-08T03:49:14.711Z,16.77
2022-12-08T03:51:42.417Z,16.70
2022-12-08T03:54:11.517Z,17.05
2022-12-08T03:56:40.384Z,17.30
2022-12-08T03:59:08.571Z,17.75
2022-12-08T04:01:36.359Z,16.80
2022-12-08T04:04:04.226Z,17.15
2022-12-08T04:06:31.912Z,16.05
2022-12-08T04:08:59.803Z,16.52
2022-12-08T04:11:28.879Z,16.93
2022-12-08T04:13:56.607Z,16.63
2022-12-08T04:16:26.590Z,15.43
2022-12-08T04:18:54.918Z,15.20
2022-12-08T04:21:22.747Z,14.60
2022-12-08T04:23:50.497Z,14.63
2022-12-08T04:26:18.574Z,14.57
2022-12-08T04:28:47.806Z,14.65
2022-12-08T04:31:15.663Z,14.13
2022-12-08T04:33:43.384Z,14.25
2022-12-08T04:36:11.184Z,14.35
2022-12-08T04:38:38.979Z,13.30
2022-12-08T04:41:06.830Z,14.05
2022-12-08T04:43:34.636Z,13.93
2022-12-08T04:46:06.567Z,14.65
2022-12-08T04:48:34.253Z,13.32
2022-12-08T04:51:02.044Z,14.43
2022-12-08T04:53:29.727Z,13.80
2022-12-08T04:55:57.515Z,13.60
2022-12-08T04:58:25.261Z,14.43
2022-12-08T05:00:53.238Z,13.82
2022-12-08T05:03:28.277Z,14.25
2022-12-08T05:05:56.149Z,14.07
2022-12-08T05:08:23.915Z,17.02
2022-12-08T05:10:51.707Z,16.63
2022-12-08T05:13:19.457Z,15.88
2022-12-08T05:15:47.167Z,15.07
2022-12-08T05:18:15.657Z,16.35
2022-12-08T05:20:44.759Z,15.83
2022-12-08T05:23:12.421Z,16.27
2022-12-08T05:25:40.175Z,15.98
2022-12-08T05:28:39.759Z,15.57
2022-12-08T05:30:55.476Z,15.13
2022-12-08T05:33:23.239Z,17.88
2022-12-08T05:35:52.359Z,17.58
2022-12-08T05:38:20.418Z,15.18
2022-12-08T05:40:48.079Z,14.90
2022-12-08T05:43:16.008Z,15.40
2022-12-08T05:45:43.783Z,14.93
2022-12-08T05:48:11.548Z,15.32
2022-12-08T05:50:39.262Z,16.45
2022-12-08T05:53:08.404Z,15.07
2022-12-08T05:55:36.099Z,14.68
2022-12-08T05:58:07.887Z,14.05
2022-12-08T06:00:35.865Z,13.77
2022-12-08T06:03:03.734Z,13.90
2022-12-08T06:05:33.343Z,13.63
2022-12-08T06:08:01.123Z,13.55
2022-12-08T06:10:30.584Z,14.65
2022-12-08T06:12:58.291Z,13.45
2022-12-08T06:15:25.972Z,13.70
2022-12-08T06:17:53.794Z,13.35
2022-12-08T06:20:21.542Z,12.65
2022-12-08T06:22:49.349Z,13.18
2022-12-08T06:25:17.110Z,11.63
2022-12-08T06:27:46.271Z,10.50
2022-12-08T06:30:14.763Z,9.98
2022-12-08T06:32:42.481Z,9.20
2022-12-08T06:35:10.568Z,9.30
2022-12-08T06:37:38.534Z,8.70
2022-12-08T06:40:08.456Z,8.27
2022-12-08T06:42:45.096Z,8.27
2022-12-08T06:45:15.110Z,7.80
2022-12-08T06:47:43.105Z,8.35
2022-12-08T06:50:12.137Z,7.53
2022-12-08T06:52:49.321Z,8.50
2022-12-08T06:55:50.850Z,8.90
2022-12-08T06:58:12.533Z,8.05
2022-12-08T07:00:42.700Z,8.27
2022-12-08T07:03:11.169Z,7.78
2022-12-08T07:05:39.616Z,7.60
2022-12-08T07:08:08.967Z,7.68
2022-12-08T07:10:37.088Z,10.05
2022-12-08T07:13:05.043Z,7.07
2022-12-08T07:15:32.728Z,8.05
2022-12-08T07:18:01.973Z,7.43
2022-12-08T07:20:29.799Z,8.32
2022-12-08T07:22:57.635Z,8.68
2022-12-08T07:25:25.335Z,7.53
2022-12-08T07:27:53.389Z,7.70
2022-12-08T07:30:21.575Z,7.22
2022-12-08T07:32:49.342Z,7.03
2022-12-08T07:35:18.529Z,6.30
2022-12-08T07:37:46.189Z,6.90
2022-12-08T07:40:14.874Z,6.75
2022-12-08T07:42:42.620Z,6.78
2022-12-08T07:45:11.075Z,6.45
2022-12-08T07:47:38.763Z,6.80
2022-12-08T07:50:07.973Z,6.40
2022-12-08T07:52:37.129Z,6.80
2022-12-08T07:55:05.209Z,6.55
2022-12-08T07:57:32.953Z,6.63
2022-12-08T08:00:00.643Z,5.53
2022-12-08T08:02:28.480Z,5.90
2022-12-08T08:04:56.381Z,5.95
2022-12-08T08:07:24.181Z,6.55
2022-12-08T08:09:53.273Z,6.10
2022-12-08T08:12:36.221Z,5.55
2022-12-08T08:15:05.435Z,5.18
2022-12-08T08:17:33.281Z,6.25
2022-12-08T08:20:01.572Z,6.07
2022-12-08T08:22:29.641Z,6.15
2022-12-08T08:24:58.829Z,6.07
2022-12-08T08:27:26.860Z,5.82
2022-12-08T08:29:54.560Z,5.78
2022-12-08T08:32:22.323Z,6.32
2022-12-08T08:34:49.995Z,6.50
2022-12-08T08:37:17.764Z,6.40
2022-12-08T08:39:45.617Z,8.77
2022-12-08T08:42:14.750Z,5.93
2022-12-08T08:44:42.520Z,5.97
2022-12-08T08:47:10.258Z,7.00
2022-12-08T08:49:38.094Z,7.15
2022-12-08T08:52:06.487Z,7.10
2022-12-08T08:54:34.605Z,6.90
2022-12-08T08:57:02.718Z,7.30
2022-12-08T08:59:32.074Z,6.85
2022-12-08T09:01:59.952Z,7.10
2022-12-08T09:04:27.767Z,7.68
2022-12-08T09:06:55.569Z,7.30
2022-12-08T09:09:23.529Z,8.20
2022-12-08T09:11:51.293Z,7.57
2022-12-08T09:14:19.069Z,7.70
2022-12-08T09:16:48.396Z,7.80
2022-12-08T09:19:16.271Z,7.35
2022-12-08T09:21:43.999Z,8.43
2022-12-08T09:24:16.414Z,9.30
2022-12-08T09:26:45.003Z,8.98
2022-12-08T09:29:13.754Z,8.63
2022-12-08T09:31:41.775Z,8.23
2022-12-08T09:34:11.559Z,8.27
2022-12-08T09:36:39.275Z,7.10
2022-12-08T09:39:07.056Z,6.35
2022-12-08T09:43:47.209Z,5.55
2022-12-08T09:46:19.122Z,5.88
2022-12-08T09:48:49.548Z,5.18
2022-12-08T09:51:17.442Z,5.20
2022-12-08T09:53:48.640Z,5.05
2022-12-08T09:56:18.810Z,5.43
2022-12-08T10:00:40.948Z,4.75
2022-12-08T10:03:16.252Z,18.90
2022-12-08T10:05:48.697Z,7.47
2022-12-08T10:08:22.275Z,6.60
2022-12-08T10:10:57.361Z,5.85
2022-12-08T10:13:32.640Z,5.80
2022-12-08T10:16:11.906Z,5.72
2022-12-08T10:18:43.257Z,5.10
2022-12-08T10:21:17.145Z,4.72
2022-12-08T10:23:46.292Z,4.43
2022-12-08T10:26:16.400Z,4.22
2022-12-08T10:28:45.315Z,3.95
2022-12-08T10:31:21.112Z,5.43
2022-12-08T10:33:59.600Z,5.38
2022-12-08T10:36:45.712Z,3.67
2022-12-08T10:39:32.430Z,3.80
2022-12-08T10:42:08.676Z,3.00
2022-12-08T10:44:40.033Z,3.72
2022-12-08T10:47:15.080Z,4.82
2022-12-08T10:49:42.909Z,3.28
2022-12-08T10:52:11.255Z,4.38
2022-12-08T10:54:39.123Z,3.60
2022-12-08T10:57:06.920Z,4.70
2022-12-08T10:59:35.274Z,3.90
2022-12-08T11:02:03.132Z,4.07
2022-12-08T11:04:36.525Z,4.03
2022-12-08T11:07:06.190Z,3.67
2022-12-08T11:09:38.937Z,5.32
2022-12-08T11:12:11.417Z,3.72
2022-12-08T11:14:48.548Z,3.88
2022-12-08T11:17:17.878Z,4.32
2022-12-08T11:19:56.565Z,3.10
2022-12-08T11:22:26.501Z,3.30
2022-12-08T11:25:03.383Z,3.45
2022-12-08T11:27:32.252Z,3.10
2022-12-08T11:30:00.531Z,3.70
2022-12-08T11:32:28.426Z,3.63
2022-12-08T11:35:00.797Z,3.13
2022-12-08T11:37:35.031Z,3.80
2022-12-08T11:40:06.421Z,3.00
2022-12-08T11:42:36.958Z,3.75
2022-12-08T11:45:08.574Z,2.95
2022-12-08T11:47:40.768Z,4.07
2022-12-08T11:50:21.120Z,3.78
2022-12-08T11:52:51.594Z,5.15
2022-12-08T11:55:35.235Z,5.18
2022-12-08T11:58:14.413Z,4.72
2022-12-08T12:00:42.252Z,4.28
2022-12-08T12:03:18.824Z,4.70
2022-12-08T12:08:57.408Z,4.63
2022-12-08T12:11:47.006Z,4.78
2022-12-08T12:14:26.550Z,4.45
2022-12-08T12:17:03.324Z,4.82
2022-12-08T12:19:34.018Z,3.92
2022-12-08T12:22:11.882Z,4.65
2022-12-08T12:24:40.538Z,4.30
2022-12-08T12:27:22.097Z,4.25
2022-12-08T12:29:55.736Z,4.03
2022-12-08T12:32:24.519Z,3.80
2022-12-08T12:34:54.315Z,3.60
2022-12-08T12:37:24.810Z,3.37
2022-12-08T12:39:57.252Z,2.90
2022-12-08T12:42:38.334Z,3.53
2022-12-08T12:45:25.343Z,3.55
2022-12-08T12:47:56.907Z,3.17
2022-12-08T12:50:43.404Z,3.13
2022-12-08T12:53:44.119Z,3.20
2022-12-08T12:56:48.292Z,4.15
2022-12-08T12:59:44.071Z,2.83
2022-12-08T13:02:29.226Z,2.07
2022-12-08T13:05:00.033Z,2.00
2022-12-08T13:07:30.789Z,2.80
2022-12-08T13:10:01.683Z,2.33
2022-12-08T13:12:31.041Z,3.30
2022-12-08T13:15:05.569Z,2.22
2022-12-08T13:17:35.302Z,2.05
2022-12-08T13:20:06.466Z,2.08
2022-12-08T13:22:59.280Z,1.70
2022-12-08T13:25:59.535Z,1.70
2022-12-08T13:28:30.944Z,2.00
2022-12-08T13:31:00.217Z,3.58
2022-12-08T13:33:33.340Z,2.85
2022-12-08T13:36:20.967Z,1.98
2022-12-08T13:38:49.463Z,2.72
2022-12-08T13:41:20.312Z,2.72
2022-12-08T13:44:20.597Z,2.30
2022-12-08T13:58:18.594Z,2.05
2022-12-08T14:00:57.297Z,2.33
2022-12-08T14:03:25.091Z,1.67
2022-12-08T14:09:02.629Z,1.75
2022-12-08T14:11:36.258Z,2.38
2022-12-08T14:14:05.973Z,2.25
2022-12-08T14:16:41.444Z,2.00
2022-12-08T14:19:18.267Z,1.15
2022-12-08T14:22:24.051Z,2.00
2022-12-08T14:24:54.109Z,4.35
2022-12-08T14:27:24.116Z,2.22
2022-12-08T14:29:54.113Z,2.00
2022-12-08T14:32:24.994Z,2.13
2022-12-08T14:34:55.034Z,2.50
2022-12-08T14:37:25.521Z,2.85
2022-12-08T14:39:53.588Z,2.28
2022-12-08T14:42:25.057Z,2.95
2022-12-08T14:45:05.125Z,3.00
2022-12-08T14:47:34.514Z,3.30
2022-12-08T14:50:03.705Z,3.30
2022-12-08T14:52:33.045Z,3.10
2022-12-08T14:55:00.775Z,3.30
2022-12-08T14:57:35.126Z,3.65
2022-12-08T15:00:11.121Z,4.25
2022-12-08T15:02:43.083Z,3.58
2022-12-08T15:05:13.520Z,3.70
2022-12-08T15:07:48.770Z,3.83
2022-12-08T15:10:27.646Z,4.25
2022-12-08T15:13:00.832Z,5.00
2022-12-08T15:15:29.507Z,6.10
2022-12-08T15:18:03.866Z,6.18
2022-12-08T15:20:41.671Z,5.70
2022-12-08T15:23:21.792Z,5.35
2022-12-08T15:25:50.090Z,4.35
2022-12-08T15:28:19.810Z,4.73
2022-12-08T15:30:48.123Z,5.27
2022-12-08T15:33:16.000Z,5.68
2022-12-08T15:35:44.137Z,5.60
2022-12-08T15:38:21.191Z,8.20
2022-12-08T15:40:48.928Z,11.48
2022-12-08T15:43:16.683Z,10.63
2022-12-08T15:45:56.309Z,13.95
2022-12-08T15:48:28.957Z,14.93
2022-12-08T15:50:57.441Z,13.05
2022-12-08T15:53:26.746Z,11.75
2022-12-08T15:58:52.922Z,24.85
2022-12-08T16:01:12.696Z,66.22
2022-12-08T16:04:27.500Z,92.60
2022-12-08T16:09:19.291Z,48.65
2022-12-08T16:12:07.219Z,42.05
2022-12-08T16:17:26.717Z,27.63
2022-12-08T16:19:54.795Z,22.53
2022-12-08T16:25:21.751Z,18.42
2022-12-08T16:28:23.621Z,19.48
2022-12-08T16:30:39.819Z,23.38
2022-12-08T16:33:07.681Z,24.80
2022-12-08T16:35:35.468Z,24.40
2022-12-08T16:38:04.168Z,28.77
2022-12-08T16:40:32.161Z,48.13
2022-12-08T16:42:58.886Z,57.37
2022-12-08T16:45:28.427Z,44.08
2022-12-08T16:47:59.272Z,34.50
2022-12-08T16:50:29.143Z,35.10
2022-12-08T16:52:58.152Z,36.28
2022-12-08T16:55:26.512Z,28.35
2022-12-08T16:57:54.354Z,20.52
2022-12-08T17:00:24.400Z,18.92
2022-12-08T17:02:53.001Z,16.50
2022-12-08T17:05:24.905Z,17.25
2022-12-08T17:07:53.883Z,17.75
2022-12-08T17:10:24.005Z,20.08
2022-12-08T17:12:52.148Z,22.30
2022-12-08T17:15:21.452Z,19.08
2022-12-08T17:17:49.546Z,18.60
2022-12-08T17:20:19.566Z,16.92
2022-12-08T17:22:49.000Z,17.52
2022-12-08T17:25:16.951Z,16.92
2022-12-08T17:27:44.704Z,18.60
2022-12-08T17:30:15.799Z,19.13
2022-12-08T17:32:44.406Z,20.40
2022-12-08T17:35:13.366Z,23.52
2022-12-08T17:37:41.294Z,23.17
2022-12-08T17:40:11.207Z,22.00
2022-12-08T17:42:39.052Z,25.60
2022-12-08T17:45:10.453Z,41.65
2022-12-08T17:47:41.086Z,63.70
2022-12-08T17:50:11.333Z,56.72
2022-12-08T17:52:39.146Z,37.77
2022-12-08T17:55:13.198Z,28.92
2022-12-08T17:57:42.932Z,31.33
2022-12-08T18:00:12.074Z,25.75
2022-12-08T18:02:40.019Z,25.60
2022-12-08T18:05:08.335Z,27.00
2022-12-08T18:07:36.146Z,27.00
2022-12-08T18:10:04.771Z,26.75
2022-12-08T18:12:34.053Z,27.63
2022-12-08T18:15:02.339Z,27.27
2022-12-08T18:17:30.029Z,29.80
2022-12-08T18:19:57.818Z,28.50
2022-12-08T18:22:26.688Z,29.65
2022-12-08T18:24:54.451Z,26.05
2022-12-08T18:27:22.202Z,21.88
2022-12-08T18:29:51.432Z,19.60
2022-12-08T18:32:22.760Z,21.42
2022-12-08T18:34:50.921Z,18.25
2022-12-08T18:37:18.739Z,17.45
2022-12-08T18:39:46.476Z,16.77
2022-12-08T18:42:23.826Z,16.38
2022-12-08T18:44:56.219Z,15.65
2022-12-08T18:47:24.060Z,15.23
2022-12-08T18:49:51.840Z,16.70
2022-12-08T18:52:26.858Z,16.55
2022-12-08T18:55:06.215Z,16.83
2022-12-08T18:57:35.109Z,15.55
2022-12-08T19:00:04.758Z,15.90
2022-12-08T19:02:33.163Z,15.63
2022-12-08T19:05:01.366Z,16.13
2022-12-08T19:07:29.380Z,15.02
2022-12-08T19:09:58.735Z,16.17
2022-12-08T19:12:26.629Z,17.65
2022-12-08T19:14:54.693Z,17.98
2022-12-08T19:17:25.743Z,17.40
2022-12-08T19:19:53.472Z,18.30
2022-12-08T19:22:21.277Z,17.85
2022-12-08T19:24:49.011Z,17.58
2022-12-08T19:27:17.055Z,17.33
2022-12-08T19:29:44.862Z,22.70
2022-12-08T19:32:22.473Z,49.08
2022-12-08T19:34:52.796Z,55.15
2022-12-08T19:37:32.248Z,60.75
2022-12-08T19:40:17.729Z,50.95
2022-12-08T19:43:06.373Z,38.90
2022-12-08T19:45:38.215Z,32.10
2022-12-08T19:48:07.323Z,31.33
2022-12-08T19:50:40.790Z,27.40
2022-12-08T19:53:13.188Z,25.10
2022-12-08T19:55:42.356Z,25.95
2022-12-08T19:58:11.362Z,29.27
2022-12-08T20:00:41.056Z,45.40
2022-12-08T20:03:12.776Z,43.42
2022-12-08T20:05:43.211Z,43.23
2022-12-08T20:08:12.320Z,42.85
2022-12-08T20:10:42.903Z,42.05
2022-12-08T20:13:32.719Z,36.07
2022-12-08T20:16:07.419Z,30.65
2022-12-08T20:18:37.049Z,27.55
2022-12-08T20:21:09.522Z,28.52
2022-12-08T20:23:38.794Z,27.77
2022-12-08T20:26:11.205Z,26.10
2022-12-08T20:28:42.705Z,27.00
2022-12-08T20:31:19.831Z,32.03
2022-12-08T20:33:52.543Z,33.72
2022-12-08T20:36:25.359Z,38.92
2022-12-08T20:39:00.436Z,44.25
2022-12-08T20:41:28.964Z,37.05
2022-12-08T20:44:02.543Z,32.05
2022-12-08T20:49:42.015Z,32.08
2022-12-08T20:52:35.379Z,29.95
2022-12-08T20:55:04.487Z,26.52
2022-12-08T20:57:44.397Z,24.70
2022-12-08T21:00:17.057Z,23.42
2022-12-08T21:03:01.223Z,22.85
2022-12-08T21:05:30.341Z,20.95
2022-12-08T21:08:04.378Z,21.50
2022-12-08T21:10:43.964Z,20.98
2022-12-08T21:13:13.649Z,20.70
2022-12-08T21:15:47.695Z,21.10
2022-12-08T21:18:26.660Z,22.17
2022-12-08T21:21:03.592Z,25.42
2022-12-08T21:23:48.413Z,22.98
2022-12-08T21:26:20.091Z,28.52
2022-12-08T21:29:15.852Z,25.15
2022-12-08T21:32:04.881Z,24.13
2022-12-08T21:34:49.551Z,21.30
2022-12-08T21:37:24.944Z,27.55
2022-12-08T21:40:30.844Z,28.35
2022-12-08T21:43:08.106Z,28.50
2022-12-08T21:45:54.884Z,24.23
2022-12-08T21:48:40.717Z,23.58
2022-12-08T21:51:24.292Z,22.42
2022-12-08T21:54:23.896Z,29.98
2022-12-08T21:57:18.998Z,26.63
2022-12-08T22:00:04.918Z,27.27
2022-12-08T22:02:47.697Z,27.52
2022-12-08T22:05:36.892Z,26.85
2022-12-08T22:08:36.941Z,26.65
2022-12-08T22:14:35.339Z,23.77
2022-12-08T22:17:38.951Z,26.35
2022-12-08T22:20:21.935Z,23.48
2022-12-08T22:22:59.367Z,22.27
2022-12-08T22:25:59.685Z,24.25
2022-12-08T22:28:43.701Z,27.98
2022-12-08T22:31:36.475Z,25.60
2022-12-08T22:34:26.957Z,27.38
2022-12-08T22:36:54.696Z,23.95
2022-12-08T22:39:22.493Z,23.70
2022-12-08T22:41:50.500Z,23.23
2022-12-08T22:44:18.384Z,23.42
2022-12-08T22:46:47.869Z,23.63
2022-12-08T22:49:15.687Z,25.98
2022-12-08T22:51:43.409Z,26.58
2022-12-08T22:54:11.586Z,29.80
2022-12-08T22:56:39.323Z,31.40
2022-12-08T22:59:07.630Z,37.40
2022-12-08T23:01:35.566Z,40.33
2022-12-08T23:04:05.234Z,29.38
2022-12-08T23:06:33.362Z,31.25
2022-12-08T23:09:01.235Z,27.83
2022-12-08T23:11:31.454Z,28.95
2022-12-08T23:14:01.066Z,28.10
2022-12-08T23:16:29.003Z,31.67
2022-12-08T23:18:57.024Z,31.65
2022-12-08T23:21:26.428Z,32.97
2022-12-08T23:23:54.254Z,33.90
2022-12-08T23:26:23.944Z,32.45
2022-12-08T23:28:51.905Z,31.73
2022-12-08T23:31:20.356Z,28.48
2022-12-08T23:33:48.776Z,29.25
2022-12-08T23:36:17.544Z,27.63
2022-12-08T23:38:47.268Z,29.25
2022-12-08T23:41:16.354Z,26.92
2022-12-08T23:43:45.368Z,27.38
2022-12-08T23:46:13.722Z,28.02
2022-12-08T23:48:41.773Z,25.50
2022-12-08T23:51:10.126Z,25.98
2022-12-08T23:53:38.227Z,27.80
2022-12-08T23:56:09.629Z,26.02
2022-12-08T23:58:37.705Z,24.13
